createdAt,value
2022-08-20T00:00:48.592Z,0.70
2022-08-20T00:03:22.098Z,0.93
2022-08-20T00:06:15.942Z,0.90
2022-08-20T00:08:43.555Z,0.90
2022-08-20T00:11:14.606Z,0.90
2022-08-20T00:13:47.191Z,0.90
2022-08-20T00:16:15.935Z,0.98
2022-08-20T00:18:43.035Z,0.82
2022-08-20T00:21:12.187Z,0.90
2022-08-20T00:23:50.248Z,0.90
2022-08-20T00:26:17.699Z,0.80
2022-08-20T00:28:44.763Z,0.88
2022-08-20T00:31:13.958Z,0.70
2022-08-20T00:33:40.952Z,0.85
2022-08-20T00:36:10.745Z,0.88
2022-08-20T00:38:39.094Z,1.20
2022-08-20T00:41:07.359Z,0.95
2022-08-20T00:43:48.086Z,1.05
2022-08-20T00:46:31.865Z,1.00
2022-08-20T00:49:02.528Z,1.10
2022-08-20T00:51:38.195Z,1.15
2022-08-20T00:54:11.109Z,1.02
2022-08-20T00:56:38.907Z,1.00
2022-08-20T00:59:11.348Z,1.35
2022-08-20T01:01:55.118Z,1.27
2022-08-20T01:04:27.459Z,1.50
2022-08-20T01:06:54.639Z,1.52
2022-08-20T01:09:33.545Z,1.40
2022-08-20T01:12:10.322Z,1.60
2022-08-20T01:14:46.696Z,1.63
2022-08-20T01:17:19.086Z,1.60
2022-08-20T01:19:53.003Z,1.90
2022-08-20T01:22:47.237Z,2.08
2022-08-20T01:25:23.898Z,1.95
2022-08-20T01:27:53.225Z,2.03
2022-08-20T01:30:23.619Z,2.05
2022-08-20T01:32:50.157Z,1.70
2022-08-20T01:35:21.146Z,1.92
2022-08-20T01:37:47.685Z,1.80
2022-08-20T01:40:21.386Z,1.85
2022-08-20T01:42:59.242Z,1.67
2022-08-20T01:45:29.212Z,1.42
2022-08-20T01:47:58.264Z,1.60
2022-08-20T01:50:28.957Z,1.60
2022-08-20T01:53:11.401Z,1.60
2022-08-20T01:55:38.774Z,1.70
2022-08-20T01:58:05.749Z,1.40
2022-08-20T02:00:32.661Z,1.52
2022-08-20T02:02:59.292Z,1.50
2022-08-20T02:05:30.525Z,1.38
2022-08-20T02:07:57.410Z,1.13
2022-08-20T02:10:24.151Z,1.40
2022-08-20T02:12:50.819Z,1.40
2022-08-20T02:15:19.796Z,1.40
2022-08-20T02:20:31.935Z,1.63
2022-08-20T02:23:00.508Z,1.55
2022-08-20T02:25:30.459Z,1.70
2022-08-20T02:27:57.996Z,1.63
2022-08-20T02:30:34.725Z,1.50
2022-08-20T02:33:06.023Z,1.67
2022-08-20T02:35:34.216Z,1.45
2022-08-20T02:38:01.795Z,1.60
2022-08-20T02:40:30.931Z,1.58
2022-08-20T02:43:00.180Z,1.77
2022-08-20T02:45:27.964Z,1.55
2022-08-20T02:47:56.816Z,1.73
2022-08-20T02:50:26.188Z,2.03
2022-08-20T02:52:53.995Z,1.60
2022-08-20T02:55:26.882Z,1.50
2022-08-20T02:57:58.767Z,1.70
2022-08-20T03:00:27.831Z,1.63
2022-08-20T03:02:54.390Z,1.90
2022-08-20T03:05:21.271Z,1.60
2022-08-20T03:07:53.469Z,1.60
2022-08-20T03:10:26.290Z,1.77
2022-08-20T03:12:52.822Z,1.60
2022-08-20T03:15:20.711Z,1.40
2022-08-20T03:17:47.556Z,1.30
2022-08-20T03:20:14.606Z,1.45
2022-08-20T03:22:41.293Z,1.30
2022-08-20T03:25:08.674Z,1.30
2022-08-20T03:27:36.424Z,1.13
2022-08-20T03:30:06.751Z,1.02
2022-08-20T03:32:33.378Z,1.20
2022-08-20T03:35:00.072Z,1.20
2022-08-20T03:37:31.097Z,1.38
2022-08-20T03:39:58.332Z,1.00
2022-08-20T03:42:25.011Z,1.10
2022-08-20T03:44:58.830Z,1.08
2022-08-20T03:47:26.471Z,1.15
2022-08-20T03:49:53.153Z,1.17
2022-08-20T03:52:19.680Z,1.30
2022-08-20T03:54:46.258Z,1.00
2022-08-20T03:57:14.998Z,0.70
2022-08-20T03:59:43.222Z,0.95
2022-08-20T04:02:11.082Z,1.00
2022-08-20T04:04:40.178Z,0.63
2022-08-20T04:07:15.819Z,1.08
2022-08-20T04:09:43.894Z,1.02
2022-08-20T04:12:13.015Z,0.60
2022-08-20T04:14:40.279Z,0.65
2022-08-20T04:17:10.033Z,1.08
2022-08-20T04:19:37.313Z,1.13
2022-08-20T04:22:04.056Z,1.00
2022-08-20T04:24:32.074Z,0.95
2022-08-20T04:27:00.160Z,0.70
2022-08-20T04:29:32.181Z,0.95
2022-08-20T04:32:00.665Z,1.00
2022-08-20T04:34:29.675Z,0.88
2022-08-20T04:36:56.260Z,0.85
2022-08-20T04:39:23.704Z,0.88
2022-08-20T04:41:50.437Z,0.85
2022-08-20T04:44:17.012Z,1.02
2022-08-20T04:46:43.764Z,1.00
2022-08-20T04:49:10.355Z,1.05
2022-08-20T04:51:37.144Z,1.20
2022-08-20T04:54:04.601Z,0.85
2022-08-20T04:56:34.950Z,0.90
2022-08-20T04:59:01.957Z,0.90
2022-08-20T05:01:29.293Z,1.10
2022-08-20T05:03:57.976Z,1.05
2022-08-20T05:06:28.572Z,1.10
2022-08-20T05:08:57.304Z,0.90
2022-08-20T05:11:35.343Z,1.30
2022-08-20T05:14:09.011Z,1.00
2022-08-20T05:16:39.046Z,0.90
2022-08-20T05:19:08.767Z,1.00
2022-08-20T05:21:35.565Z,1.10
2022-08-20T05:24:02.937Z,1.50
2022-08-20T05:26:29.606Z,1.23
2022-08-20T05:28:58.362Z,0.95
2022-08-20T05:31:32.261Z,1.33
2022-08-20T05:34:01.416Z,1.13
2022-08-20T05:36:28.189Z,1.60
2022-08-20T05:38:54.821Z,1.27
2022-08-20T05:41:29.200Z,1.27
2022-08-20T05:44:02.692Z,1.27
2022-08-20T05:46:32.393Z,1.08
2022-08-20T05:49:01.590Z,1.17
2022-08-20T05:51:29.240Z,1.50
2022-08-20T05:53:59.424Z,1.60
2022-08-20T05:56:27.637Z,1.60
2022-08-20T05:58:54.496Z,1.50
2022-08-20T06:01:21.411Z,1.55
2022-08-20T06:04:06.788Z,1.63
2022-08-20T06:06:44.798Z,1.40
2022-08-20T06:09:30.622Z,1.77
2022-08-20T06:12:00.136Z,1.98
2022-08-20T06:14:26.728Z,1.40
2022-08-20T06:16:58.045Z,1.15
2022-08-20T06:19:26.939Z,2.78
2022-08-20T06:21:53.904Z,1.95
2022-08-20T06:24:21.331Z,2.25
2022-08-20T06:26:47.990Z,2.20
2022-08-20T06:29:15.798Z,2.42
2022-08-20T06:31:42.410Z,2.35
2022-08-20T06:34:09.001Z,2.20
2022-08-20T06:36:35.569Z,2.58
2022-08-20T06:39:02.205Z,2.10
2022-08-20T06:41:36.306Z,2.97
2022-08-20T06:44:04.843Z,2.53
2022-08-20T06:46:32.238Z,2.08
2022-08-20T06:48:58.983Z,3.10
2022-08-20T06:51:25.528Z,2.80
2022-08-20T06:53:52.244Z,3.28
2022-08-20T06:56:19.028Z,2.78
2022-08-20T06:58:45.720Z,2.20
2022-08-20T07:01:13.834Z,2.75
2022-08-20T07:03:42.275Z,2.50
2022-08-20T07:06:22.129Z,2.60
2022-08-20T07:08:48.739Z,2.80
2022-08-20T07:11:15.449Z,2.45
2022-08-20T07:13:42.115Z,2.50
2022-08-20T07:16:09.037Z,2.97
2022-08-20T07:18:36.679Z,2.70
2022-08-20T07:21:03.813Z,2.55
2022-08-20T07:23:31.705Z,2.50
2022-08-20T07:25:58.537Z,2.85
2022-08-20T07:28:31.926Z,2.35
2022-08-20T07:31:17.113Z,2.53
2022-08-20T07:33:47.040Z,3.03
2022-08-20T07:36:17.740Z,2.33
2022-08-20T07:38:48.884Z,2.42
2022-08-20T07:41:15.535Z,2.83
2022-08-20T07:43:45.579Z,2.55
2022-08-20T07:46:17.739Z,2.22
2022-08-20T07:48:49.944Z,2.58
2022-08-20T07:51:19.465Z,2.50
2022-08-20T07:53:47.711Z,2.55
2022-08-20T07:56:19.367Z,2.38
2022-08-20T07:58:50.114Z,3.03
2022-08-20T08:01:25.696Z,2.42
2022-08-20T08:03:52.793Z,2.38
2022-08-20T08:06:30.247Z,2.10
2022-08-20T08:09:15.251Z,2.17
2022-08-20T08:11:47.425Z,2.10
2022-08-20T08:14:16.731Z,1.75
2022-08-20T08:16:45.419Z,2.22
2022-08-20T08:19:14.769Z,2.50
2022-08-20T08:21:42.033Z,1.98
2022-08-20T08:24:08.604Z,2.53
2022-08-20T08:26:35.167Z,2.22
2022-08-20T08:29:02.608Z,1.65
2022-08-20T08:31:29.339Z,1.77
2022-08-20T08:33:55.924Z,2.72
2022-08-20T08:36:22.540Z,2.10
2022-08-20T08:38:49.125Z,2.20
2022-08-20T08:41:20.639Z,2.00
2022-08-20T08:43:53.261Z,2.22
2022-08-20T08:46:26.045Z,2.15
2022-08-20T08:48:57.918Z,2.40
2022-08-20T08:54:06.609Z,2.35
2022-08-20T08:56:34.754Z,2.42
2022-08-20T08:59:07.752Z,1.98
2022-08-20T09:01:59.754Z,2.45
2022-08-20T09:04:44.744Z,2.20
2022-08-20T09:07:15.820Z,2.38
2022-08-20T09:09:47.103Z,2.30
2022-08-20T09:12:18.887Z,1.88
2022-08-20T09:14:48.012Z,2.33
2022-08-20T09:17:19.211Z,1.90
2022-08-20T09:19:45.941Z,2.10
2022-08-20T09:22:15.989Z,2.38
2022-08-20T09:24:43.835Z,2.65
2022-08-20T09:27:11.361Z,2.17
2022-08-20T09:29:39.011Z,2.30
2022-08-20T09:32:16.349Z,2.30
2022-08-20T09:34:47.142Z,2.75
2022-08-20T09:37:15.053Z,2.50
2022-08-20T09:39:42.971Z,2.35
2022-08-20T09:42:22.213Z,2.35
2022-08-20T09:44:48.897Z,2.20
2022-08-20T09:47:17.333Z,2.53
2022-08-20T09:49:44.819Z,2.78
2022-08-20T09:52:24.388Z,2.83
2022-08-20T09:54:55.371Z,2.53
2022-08-20T09:57:22.458Z,2.47
2022-08-20T09:59:57.298Z,2.42
2022-08-20T10:02:24.964Z,3.03
2022-08-20T10:04:52.158Z,2.42
2022-08-20T10:07:19.408Z,2.70
2022-08-20T10:09:46.058Z,2.88
2022-08-20T10:12:12.832Z,2.28
2022-08-20T10:14:39.524Z,2.90
2022-08-20T10:17:06.221Z,2.38
2022-08-20T10:19:33.053Z,3.25
2022-08-20T10:22:00.445Z,2.13
2022-08-20T10:24:28.107Z,2.58
2022-08-20T10:26:57.400Z,2.63
2022-08-20T10:29:24.524Z,2.72
2022-08-20T10:31:51.495Z,2.80
2022-08-20T10:34:18.245Z,2.97
2022-08-20T10:36:45.164Z,2.30
2022-08-20T10:39:11.951Z,2.65
2022-08-20T10:41:39.226Z,2.88
2022-08-20T10:44:06.221Z,2.30
2022-08-20T10:46:32.975Z,2.70
2022-08-20T10:48:59.563Z,3.20
2022-08-20T10:51:32.266Z,2.60
2022-08-20T10:53:59.802Z,3.00
2022-08-20T10:56:26.477Z,2.88
2022-08-20T10:58:53.037Z,2.58
2022-08-20T11:01:28.709Z,2.95
2022-08-20T11:03:59.609Z,2.45
2022-08-20T11:06:26.145Z,2.45
2022-08-20T11:08:52.726Z,2.38
2022-08-20T11:11:19.445Z,2.35
2022-08-20T11:13:45.978Z,2.22
2022-08-20T11:16:12.642Z,2.40
2022-08-20T11:18:40.979Z,2.83
2022-08-20T11:21:10.267Z,2.30
2022-08-20T11:23:36.900Z,2.13
2022-08-20T11:26:03.697Z,2.10
2022-08-20T11:28:32.379Z,2.30
2022-08-20T11:30:59.815Z,2.50
2022-08-20T11:33:26.377Z,2.63
2022-08-20T11:35:52.981Z,2.13
2022-08-20T11:38:19.670Z,2.63
2022-08-20T11:40:47.100Z,2.60
2022-08-20T11:43:15.982Z,2.03
2022-08-20T11:45:52.722Z,2.40
2022-08-20T11:48:19.628Z,2.65
2022-08-20T11:50:48.124Z,2.50
2022-08-20T11:53:15.043Z,2.42
2022-08-20T11:55:41.741Z,2.15
2022-08-20T11:58:09.734Z,2.67
2022-08-20T12:00:37.363Z,2.58
2022-08-20T12:03:08.643Z,2.17
2022-08-20T12:05:37.406Z,2.58
2022-08-20T12:08:04.440Z,2.13
2022-08-20T12:10:32.006Z,2.50
2022-08-20T12:12:59.038Z,2.00
2022-08-20T12:15:27.500Z,2.55
2022-08-20T12:17:55.056Z,2.25
2022-08-20T12:20:22.361Z,2.38
2022-08-20T12:22:49.115Z,3.08
2022-08-20T12:25:15.990Z,2.35
2022-08-20T12:27:42.924Z,2.20
2022-08-20T12:30:15.746Z,2.70
2022-08-20T12:32:42.611Z,2.47
2022-08-20T12:35:10.684Z,2.10
2022-08-20T12:37:38.304Z,2.05
2022-08-20T12:40:09.229Z,2.20
2022-08-20T12:42:35.933Z,2.25
2022-08-20T12:45:02.785Z,2.30
2022-08-20T12:47:35.092Z,2.50
2022-08-20T12:50:15.799Z,2.65
2022-08-20T12:52:42.983Z,2.88
2022-08-20T12:55:12.915Z,2.58
2022-08-20T12:57:43.312Z,2.65
2022-08-20T13:00:17.083Z,2.65
2022-08-20T13:02:45.143Z,2.40
2022-08-20T13:05:12.860Z,2.50
2022-08-20T13:07:40.495Z,3.15
2022-08-20T13:10:09.567Z,2.58
2022-08-20T13:12:36.533Z,2.80
2022-08-20T13:15:04.216Z,2.63
2022-08-20T13:17:39.153Z,2.67
2022-08-20T13:20:34.046Z,2.55
2022-08-20T13:23:02.456Z,2.17
2022-08-20T13:25:29.133Z,2.72
2022-08-20T13:28:00.233Z,2.53
2022-08-20T13:30:27.021Z,2.55
2022-08-20T13:32:53.637Z,2.78
2022-08-20T13:35:20.442Z,2.80
2022-08-20T13:37:49.038Z,3.03
2022-08-20T13:40:17.026Z,2.78
2022-08-20T13:42:43.675Z,2.95
2022-08-20T13:45:11.133Z,2.35
2022-08-20T13:47:39.516Z,2.50
2022-08-20T13:50:13.888Z,2.75
2022-08-20T13:52:42.751Z,2.80
2022-08-20T13:55:12.840Z,2.42
2022-08-20T13:57:40.556Z,2.92
2022-08-20T14:00:13.199Z,2.60
2022-08-20T14:02:41.284Z,3.20
2022-08-20T14:05:08.659Z,2.92
2022-08-20T14:07:35.811Z,2.97
2022-08-20T14:10:10.106Z,3.05
2022-08-20T14:12:36.718Z,2.65
2022-08-20T14:15:04.639Z,2.90
2022-08-20T14:17:34.340Z,3.30
2022-08-20T14:20:05.177Z,3.03
2022-08-20T14:22:33.371Z,3.22
2022-08-20T14:25:03.338Z,3.22
2022-08-20T14:27:32.689Z,2.50
2022-08-20T14:29:59.985Z,3.03
2022-08-20T14:32:27.477Z,2.78
2022-08-20T14:34:56.660Z,2.88
2022-08-20T14:37:27.005Z,2.80
2022-08-20T14:39:57.333Z,3.08
2022-08-20T14:42:26.438Z,2.95
2022-08-20T14:44:53.878Z,2.63
2022-08-20T14:47:29.710Z,2.92
2022-08-20T14:50:01.956Z,2.85
2022-08-20T14:52:29.002Z,2.92
2022-08-20T14:54:55.779Z,2.25
2022-08-20T14:57:23.066Z,2.45
2022-08-20T14:59:52.551Z,2.80
2022-08-20T15:02:19.175Z,2.40
2022-08-20T15:04:54.006Z,2.63
2022-08-20T15:07:33.854Z,2.30
2022-08-20T15:10:02.452Z,2.47
2022-08-20T15:12:29.293Z,3.03
2022-08-20T15:14:55.954Z,2.72
2022-08-20T15:17:28.744Z,2.88
2022-08-20T15:19:56.466Z,2.65
2022-08-20T15:22:24.076Z,2.97
2022-08-20T15:24:55.471Z,2.90
2022-08-20T15:27:25.376Z,3.10
2022-08-20T15:29:52.933Z,2.55
2022-08-20T15:32:21.020Z,2.55
2022-08-20T15:34:48.385Z,2.40
2022-08-20T15:37:18.926Z,2.92
2022-08-20T15:39:46.650Z,3.00
2022-08-20T15:42:14.328Z,2.40
2022-08-20T15:44:42.532Z,3.33
2022-08-20T15:47:18.374Z,2.60
2022-08-20T15:49:45.559Z,3.00
2022-08-20T15:52:13.022Z,2.72
2022-08-20T15:54:40.340Z,3.03
2022-08-20T15:57:45.562Z,2.45
2022-08-20T16:00:20.202Z,2.40
2022-08-20T16:02:56.142Z,2.78
2022-08-20T16:05:47.816Z,3.20
2022-08-20T16:08:40.493Z,2.50
2022-08-20T16:11:44.845Z,2.95
2022-08-20T16:14:11.341Z,2.78
2022-08-20T16:16:46.320Z,3.13
2022-08-20T16:19:23.004Z,2.60
2022-08-20T16:21:51.183Z,2.90
2022-08-20T16:24:19.852Z,2.85
2022-08-20T16:27:34.187Z,2.72
2022-08-20T16:30:15.586Z,2.45
2022-08-20T16:32:59.457Z,2.55
2022-08-20T16:35:33.978Z,3.08
2022-08-20T16:38:37.513Z,2.88
2022-08-20T16:41:14.681Z,2.58
2022-08-20T16:43:50.926Z,2.78
2022-08-20T16:46:25.806Z,2.65
2022-08-20T16:48:58.032Z,2.58
2022-08-20T16:51:40.766Z,2.65
2022-08-20T16:54:08.833Z,3.05
2022-08-20T16:56:43.360Z,2.88
2022-08-20T16:59:26.599Z,2.85
2022-08-20T17:02:07.044Z,2.80
2022-08-20T17:04:34.708Z,2.78
2022-08-20T17:07:06.973Z,2.72
2022-08-20T17:09:43.405Z,2.47
2022-08-20T17:12:20.598Z,3.67
2022-08-20T17:14:52.744Z,2.78
2022-08-20T17:17:28.715Z,3.28
2022-08-20T17:20:01.013Z,3.13
2022-08-20T17:22:30.016Z,2.72
2022-08-20T17:24:57.821Z,2.92
2022-08-20T17:27:42.815Z,3.90
2022-08-20T17:30:37.020Z,3.42
2022-08-20T17:33:07.202Z,3.30
2022-08-20T17:35:43.035Z,3.00
2022-08-20T17:38:27.923Z,3.20
2022-08-20T17:40:59.981Z,3.03
2022-08-20T17:43:30.689Z,3.20
2022-08-20T17:45:59.899Z,2.70
2022-08-20T17:48:36.607Z,2.80
2022-08-20T17:51:15.212Z,2.53
2022-08-20T17:53:43.954Z,2.95
2022-08-20T17:56:19.609Z,3.22
2022-08-20T17:59:24.113Z,2.67
2022-08-20T18:02:04.800Z,3.20
2022-08-20T18:04:32.215Z,3.03
2022-08-20T18:07:13.095Z,2.65
2022-08-20T18:10:06.299Z,3.03
2022-08-20T18:12:48.004Z,3.10
2022-08-20T18:15:24.743Z,3.35
2022-08-20T18:18:06.887Z,2.67
2022-08-20T18:23:28.879Z,3.20
2022-08-20T18:26:26.680Z,3.10
2022-08-20T18:28:59.496Z,2.85
2022-08-20T18:31:42.160Z,2.78
2022-08-20T18:34:14.824Z,2.63
2022-08-20T18:36:42.413Z,2.92
2022-08-20T18:39:23.618Z,3.38
2022-08-20T18:42:02.513Z,2.85
2022-08-20T18:44:41.816Z,3.08
2022-08-20T18:47:38.941Z,2.92
2022-08-20T18:50:16.828Z,2.60
2022-08-20T18:53:14.972Z,3.13
2022-08-20T18:56:04.420Z,2.70
2022-08-20T18:58:33.114Z,2.90
2022-08-20T19:01:03.448Z,2.70
2022-08-20T19:03:36.194Z,2.95
2022-08-20T19:06:08.731Z,2.85
2022-08-20T19:09:05.488Z,2.72
2022-08-20T19:11:50.312Z,3.13
2022-08-20T19:15:09.417Z,2.60
2022-08-20T19:17:57.660Z,2.83
2022-08-20T19:20:28.569Z,4.10
2022-08-20T19:23:01.397Z,2.45
2022-08-20T19:25:33.100Z,2.60
2022-08-20T19:28:04.410Z,2.60
2022-08-20T19:30:40.199Z,2.47
2022-08-20T19:33:08.586Z,2.65
2022-08-20T19:35:36.179Z,2.58
2022-08-20T19:38:07.177Z,2.22
2022-08-20T19:40:39.283Z,2.43
2022-08-20T19:43:14.234Z,2.80
2022-08-20T19:45:54.609Z,2.45
2022-08-20T19:48:36.450Z,2.50
2022-08-20T19:51:14.165Z,2.65
2022-08-20T19:53:48.996Z,2.95
2022-08-20T19:56:21.516Z,2.55
2022-08-20T19:59:07.423Z,2.75
2022-08-20T20:01:34.864Z,2.10
2022-08-20T20:04:04.863Z,2.42
2022-08-20T20:06:36.393Z,2.50
2022-08-20T20:09:15.034Z,2.25
2022-08-20T20:11:46.196Z,2.72
2022-08-20T20:14:15.011Z,2.60
2022-08-20T20:16:42.711Z,2.22
2022-08-20T20:19:27.991Z,2.40
2022-08-20T20:22:04.124Z,2.53
2022-08-20T20:24:40.598Z,2.13
2022-08-20T20:27:19.987Z,2.25
2022-08-20T20:29:48.078Z,2.40
2022-08-20T20:32:25.094Z,2.67
2022-08-20T20:34:56.302Z,2.75
2022-08-20T20:37:50.722Z,2.70
2022-08-20T20:40:23.518Z,2.80
2022-08-20T20:43:06.220Z,2.33
2022-08-20T20:45:39.758Z,2.38
2022-08-20T20:48:20.628Z,2.45
2022-08-20T20:50:49.103Z,2.45
2022-08-20T20:53:51.197Z,2.78
2022-08-20T20:56:37.274Z,2.80
2022-08-20T20:59:07.155Z,2.63
2022-08-20T21:01:46.127Z,2.50
2022-08-20T21:04:16.814Z,2.58
2022-08-20T21:06:43.723Z,2.50
2022-08-20T21:09:10.356Z,2.50
2022-08-20T21:11:37.082Z,2.47
2022-08-20T21:14:03.804Z,2.55
2022-08-20T21:16:30.450Z,2.92
2022-08-20T21:18:58.389Z,2.70
2022-08-20T21:21:25.179Z,2.92
2022-08-20T21:23:51.780Z,2.40
2022-08-20T21:26:18.717Z,2.33
2022-08-20T21:28:45.508Z,2.53
2022-08-20T21:31:12.332Z,2.63
2022-08-20T21:33:39.140Z,2.70
2022-08-20T21:36:06.604Z,3.38
2022-08-20T21:38:33.264Z,3.35
2022-08-20T21:40:59.940Z,2.83
2022-08-20T21:43:26.932Z,3.20
2022-08-20T21:45:53.809Z,2.50
2022-08-20T21:48:20.687Z,2.72
2022-08-20T21:50:47.276Z,2.90
2022-08-20T21:53:13.896Z,2.28
2022-08-20T21:55:41.148Z,2.85
2022-08-20T21:58:08.540Z,2.78
2022-08-20T22:00:54.736Z,2.65
2022-08-20T22:03:26.868Z,2.92
2022-08-20T22:05:53.797Z,2.83
2022-08-20T22:08:21.115Z,2.85
2022-08-20T22:10:54.345Z,2.88
2022-08-20T22:13:22.261Z,2.50
2022-08-20T22:15:48.940Z,2.50
2022-08-20T22:18:17.176Z,2.70
2022-08-20T22:20:44.407Z,2.67
2022-08-20T22:23:11.941Z,2.67
2022-08-20T22:25:38.556Z,2.40
2022-08-20T22:28:05.101Z,2.40
2022-08-20T22:30:31.687Z,2.65
2022-08-20T22:33:04.797Z,2.67
2022-08-20T22:35:32.329Z,2.40
2022-08-20T22:37:58.967Z,2.53
2022-08-20T22:40:26.044Z,2.42
2022-08-20T22:42:52.872Z,2.20
2022-08-20T22:45:19.684Z,2.60
2022-08-20T22:47:46.783Z,2.60
2022-08-20T22:50:14.235Z,2.63
2022-08-20T22:52:42.404Z,2.63
2022-08-20T22:55:09.737Z,2.65
2022-08-20T22:57:37.448Z,2.53
2022-08-20T23:00:11.430Z,2.72
2022-08-20T23:02:38.973Z,2.70
2022-08-20T23:05:06.600Z,3.08
2022-08-20T23:07:34.003Z,2.72
2022-08-20T23:10:00.584Z,3.17
2022-08-20T23:12:27.155Z,2.80
2022-08-20T23:14:54.890Z,2.90
2022-08-20T23:17:21.501Z,2.83
2022-08-20T23:19:49.808Z,2.70
2022-08-20T23:22:18.534Z,2.95
2022-08-20T23:24:45.314Z,2.90
2022-08-20T23:27:16.136Z,3.30
2022-08-20T23:32:11.986Z,3.33
2022-08-20T23:34:38.860Z,3.42
2022-08-20T23:37:07.342Z,3.65
2022-08-20T23:39:34.435Z,3.47
2022-08-20T23:42:01.603Z,3.45
2022-08-20T23:44:28.555Z,3.30
2022-08-20T23:46:59.435Z,3.70
2022-08-20T23:49:27.292Z,3.38
2022-08-20T23:51:54.076Z,3.42
2022-08-20T23:54:21.024Z,3.45
2022-08-20T23:56:47.629Z,3.15
2022-08-20T23:59:14.154Z,3.78
